Terminal Aerodrome Forecast
Issued by NWS

Home | Current Version | Previous Version | Text Only | Print | Product List | Glossary On
Versions: 1 2 3 4 5 6 7 8 9 10 11 12 13
421
FTUS42 KMLB 061728
TAFTIX
TAF
KTIX 061728Z 0618/0718 22017G25KT P6SM VCSH SCT020 BKN040
      TEMPO 0618/0621 3SM TSRA BKN025CB
     FM062200 25010KT P6SM SCT050
     FM070200 27005KT P6SM SCT025
     FM070900 33004KT 5SM BR BKN020
     FM071500 29006KT P6SM FEW020 SCT250=

USA.gov is the U.S. government's official web portal to all federal, state and local government web resources and services.